sensor_id;sensor_type;location;lat;lon;timestamp;temperature;humidity
11536;DHT22;5824;49.336;8.652;2024-01-10T00:01:41;-0.70;1.00
11536;DHT22;5824;49.336;8.652;2024-01-10T00:04:07;-0.70;1.00
11536;DHT22;5824;49.336;8.652;2024-01-10T00:06:32;-0.60;1.00
11536;DHT22;5824;49.336;8.652;2024-01-10T00:08:58;-1.00;1.00
11536;DHT22;5824;49.336;8.652;2024-01-10T00:11:23;-1.20;1.00
11536;DHT22;5824;49.336;8.652;2024-01-10T00:13:49;-1.20;1.00
11536;DHT22;5824;49.336;8.652;2024-01-10T00:16:15;-0.90;1.00
11536;DHT22;5824;49.336;8.652;2024-01-10T00:18:40;-1.20;1.00
11536;DHT22;5824;49.336;8.652;2024-01-10T00:21:07;-1.10;1.00
11536;DHT22;5824;49.336;8.652;2024-01-10T00:23:32;-0.70;1.00
11536;DHT22;5824;49.336;8.652;2024-01-10T00:25:58;-0.70;1.00
11536;DHT22;5824;49.336;8.652;2024-01-10T00:28:23;-1.20;1.00
11536;DHT22;5824;49.336;8.652;2024-01-10T00:30:49;-1.40;1.00
11536;DHT22;5824;49.336;8.652;2024-01-10T00:33:15;-1.00;1.00
11536;DHT22;5824;49.336;8.652;2024-01-10T00:35:41;-1.60;1.00
11536;DHT22;5824;49.336;8.652;2024-01-10T00:38:06;-1.20;1.00
11536;DHT22;5824;49.336;8.652;2024-01-10T00:40:32;-1.10;1.00
11536;DHT22;5824;49.336;8.652;2024-01-10T00:42:57;-1.30;1.00
11536;DHT22;5824;49.336;8.652;2024-01-10T00:45:23;-0.60;1.00
11536;DHT22;5824;49.336;8.652;2024-01-10T00:47:49;-0.90;1.00
11536;DHT22;5824;49.336;8.652;2024-01-10T00:50:15;-0.90;1.00
11536;DHT22;5824;49.336;8.652;2024-01-10T00:52:42;-0.70;1.00
11536;DHT22;5824;49.336;8.652;2024-01-10T00:55:07;-0.40;1.00
11536;DHT22;5824;49.336;8.652;2024-01-10T00:57:33;-0.80;1.00
11536;DHT22;5824;49.336;8.652;2024-01-10T00:59:58;-0.80;1.00
11536;DHT22;5824;49.336;8.652;2024-01-10T01:02:24;-0.40;1.00
11536;DHT22;5824;49.336;8.652;2024-01-10T01:04:50;-0.60;1.00
11536;DHT22;5824;49.336;8.652;2024-01-10T01:07:15;-0.30;1.00
11536;DHT22;5824;49.336;8.652;2024-01-10T01:09:41;-0.20;1.00
11536;DHT22;5824;49.336;8.652;2024-01-10T01:12:06;-0.30;1.00
11536;DHT22;5824;49.336;8.652;2024-01-10T01:14:32;-0.70;1.00
11536;DHT22;5824;49.336;8.652;2024-01-10T01:16:57;-0.20;1.00
11536;DHT22;5824;49.336;8.652;2024-01-10T01:19:23;-0.30;1.00
11536;DHT22;5824;49.336;8.652;2024-01-10T01:21:48;-0.70;1.00
11536;DHT22;5824;49.336;8.652;2024-01-10T01:24:14;-0.30;1.00
11536;DHT22;5824;49.336;8.652;2024-01-10T01:26:39;-0.70;1.00
11536;DHT22;5824;49.336;8.652;2024-01-10T01:29:04;-0.50;1.00
11536;DHT22;5824;49.336;8.652;2024-01-10T01:31:31;-0.50;1.00
11536;DHT22;5824;49.336;8.652;2024-01-10T01:33:57;-0.60;1.00
11536;DHT22;5824;49.336;8.652;2024-01-10T01:36:22;-0.60;1.00
11536;DHT22;5824;49.336;8.652;2024-01-10T01:38:48;-0.70;1.00
11536;DHT22;5824;49.336;8.652;2024-01-10T01:41:14;-0.30;1.00
11536;DHT22;5824;49.336;8.652;2024-01-10T01:43:40;-0.70;1.00
11536;DHT22;5824;49.336;8.652;2024-01-10T01:46:06;-0.30;1.00
11536;DHT22;5824;49.336;8.652;2024-01-10T01:48:32;-0.70;1.00
11536;DHT22;5824;49.336;8.652;2024-01-10T01:51:03;-0.30;1.00
11536;DHT22;5824;49.336;8.652;2024-01-10T01:53:30;-0.70;1.00
11536;DHT22;5824;49.336;8.652;2024-01-10T01:55:55;-0.70;1.00
11536;DHT22;5824;49.336;8.652;2024-01-10T01:58:22;-0.60;1.00
11536;DHT22;5824;49.336;8.652;2024-01-10T02:00:48;-0.70;1.00
11536;DHT22;5824;49.336;8.652;2024-01-10T02:03:15;-1.00;1.00
11536;DHT22;5824;49.336;8.652;2024-01-10T02:05:41;-1.00;1.00
11536;DHT22;5824;49.336;8.652;2024-01-10T02:08:07;-0.80;1.00
11536;DHT22;5824;49.336;8.652;2024-01-10T02:10:33;-0.20;1.00
11536;DHT22;5824;49.336;8.652;2024-01-10T02:12:59;-0.20;1.00
11536;DHT22;5824;49.336;8.652;2024-01-10T02:15:24;-0.20;1.00
11536;DHT22;5824;49.336;8.652;2024-01-10T02:17:50;-0.50;1.00
11536;DHT22;5824;49.336;8.652;2024-01-10T02:20:16;-0.20;1.00
11536;DHT22;5824;49.336;8.652;2024-01-10T02:22:46;-0.50;1.00
11536;DHT22;5824;49.336;8.652;2024-01-10T02:25:13;-0.20;1.00
11536;DHT22;5824;49.336;8.652;2024-01-10T02:27:40;-0.10;1.00
11536;DHT22;5824;49.336;8.652;2024-01-10T02:30:06;-0.70;1.00
11536;DHT22;5824;49.336;8.652;2024-01-10T02:32:32;-0.60;1.00
11536;DHT22;5824;49.336;8.652;2024-01-10T02:34:58;-0.60;1.00
11536;DHT22;5824;49.336;8.652;2024-01-10T02:37:24;-0.60;1.00
11536;DHT22;5824;49.336;8.652;2024-01-10T02:39:49;-0.20;1.00
11536;DHT22;5824;49.336;8.652;2024-01-10T02:42:15;-1.10;1.00
11536;DHT22;5824;49.336;8.652;2024-01-10T02:44:41;-0.50;1.00
11536;DHT22;5824;49.336;8.652;2024-01-10T02:47:06;-0.20;1.00
11536;DHT22;5824;49.336;8.652;2024-01-10T02:49:32;-0.80;1.00
11536;DHT22;5824;49.336;8.652;2024-01-10T02:51:58;-0.30;1.00
11536;DHT22;5824;49.336;8.652;2024-01-10T02:54:24;-0.20;1.00
11536;DHT22;5824;49.336;8.652;2024-01-10T02:56:50;-0.60;1.00
11536;DHT22;5824;49.336;8.652;2024-01-10T02:59:15;-0.60;1.00
11536;DHT22;5824;49.336;8.652;2024-01-10T03:01:41;-0.60;1.00
11536;DHT22;5824;49.336;8.652;2024-01-10T03:04:06;-0.20;1.00
11536;DHT22;5824;49.336;8.652;2024-01-10T03:06:32;-0.60;1.00
11536;DHT22;5824;49.336;8.652;2024-01-10T03:08:57;-0.70;1.00
11536;DHT22;5824;49.336;8.652;2024-01-10T03:11:23;-0.90;1.00
11536;DHT22;5824;49.336;8.652;2024-01-10T03:14:04;-0.70;1.00
11536;DHT22;5824;49.336;8.652;2024-01-10T03:16:32;-0.20;1.00
11536;DHT22;5824;49.336;8.652;2024-01-10T03:18:57;-0.20;1.00
11536;DHT22;5824;49.336;8.652;2024-01-10T03:21:23;-0.80;1.00
11536;DHT22;5824;49.336;8.652;2024-01-10T03:23:55;-0.70;1.00
11536;DHT22;5824;49.336;8.652;2024-01-10T03:26:21;-0.40;1.00
11536;DHT22;5824;49.336;8.652;2024-01-10T03:28:47;-0.80;1.00
11536;DHT22;5824;49.336;8.652;2024-01-10T03:31:12;-0.70;1.00
11536;DHT22;5824;49.336;8.652;2024-01-10T03:33:38;-0.70;1.00
11536;DHT22;5824;49.336;8.652;2024-01-10T03:36:05;-1.20;1.00
11536;DHT22;5824;49.336;8.652;2024-01-10T03:38:30;-0.90;1.00
11536;DHT22;5824;49.336;8.652;2024-01-10T03:40:56;-1.00;1.00
11536;DHT22;5824;49.336;8.652;2024-01-10T03:43:21;-1.00;1.00
11536;DHT22;5824;49.336;8.652;2024-01-10T03:45:47;-0.60;1.00
11536;DHT22;5824;49.336;8.652;2024-01-10T03:48:12;-1.00;1.00
11536;DHT22;5824;49.336;8.652;2024-01-10T03:50:38;-0.70;1.00
11536;DHT22;5824;49.336;8.652;2024-01-10T03:53:03;-1.10;1.00
11536;DHT22;5824;49.336;8.652;2024-01-10T03:55:29;-1.00;1.00
11536;DHT22;5824;49.336;8.652;2024-01-10T03:57:55;-1.00;1.00
11536;DHT22;5824;49.336;8.652;2024-01-10T04:00:21;-1.30;1.00
11536;DHT22;5824;49.336;8.652;2024-01-10T04:02:46;-0.90;1.00
11536;DHT22;5824;49.336;8.652;2024-01-10T04:05:12;-0.90;1.00
11536;DHT22;5824;49.336;8.652;2024-01-10T04:07:42;-1.40;1.00
11536;DHT22;5824;49.336;8.652;2024-01-10T04:10:09;-0.90;1.00
11536;DHT22;5824;49.336;8.652;2024-01-10T04:12:36;-1.10;1.00
11536;DHT22;5824;49.336;8.652;2024-01-10T04:15:03;-0.70;1.00
11536;DHT22;5824;49.336;8.652;2024-01-10T04:17:29;-1.10;1.00
11536;DHT22;5824;49.336;8.652;2024-01-10T04:19:55;-1.20;1.00
11536;DHT22;5824;49.336;8.652;2024-01-10T04:22:20;-1.50;1.00
11536;DHT22;5824;49.336;8.652;2024-01-10T04:24:46;-1.20;1.00
11536;DHT22;5824;49.336;8.652;2024-01-10T04:27:11;-1.10;1.00
11536;DHT22;5824;49.336;8.652;2024-01-10T04:29:37;-1.30;1.00
11536;DHT22;5824;49.336;8.652;2024-01-10T04:32:03;-1.20;1.00
11536;DHT22;5824;49.336;8.652;2024-01-10T04:34:29;-1.30;1.00
11536;DHT22;5824;49.336;8.652;2024-01-10T04:36:54;-1.50;1.00
11536;DHT22;5824;49.336;8.652;2024-01-10T04:39:20;-1.30;1.00
11536;DHT22;5824;49.336;8.652;2024-01-10T04:41:45;-1.30;1.00
11536;DHT22;5824;49.336;8.652;2024-01-10T04:44:11;-1.50;1.00
11536;DHT22;5824;49.336;8.652;2024-01-10T04:46:36;-1.80;1.00
11536;DHT22;5824;49.336;8.652;2024-01-10T04:49:02;-1.50;1.00
11536;DHT22;5824;49.336;8.652;2024-01-10T04:51:27;-1.00;1.00
11536;DHT22;5824;49.336;8.652;2024-01-10T04:53:53;-1.30;1.00
11536;DHT22;5824;49.336;8.652;2024-01-10T04:56:18;-1.40;1.00
11536;DHT22;5824;49.336;8.652;2024-01-10T04:58:44;-1.30;1.00
11536;DHT22;5824;49.336;8.652;2024-01-10T05:01:11;-1.60;1.00
11536;DHT22;5824;49.336;8.652;2024-01-10T05:03:37;-1.00;1.00
11536;DHT22;5824;49.336;8.652;2024-01-10T05:06:02;-1.50;1.00
11536;DHT22;5824;49.336;8.652;2024-01-10T05:08:28;-1.50;1.00
11536;DHT22;5824;49.336;8.652;2024-01-10T05:10:53;-1.10;1.00
11536;DHT22;5824;49.336;8.652;2024-01-10T05:13:19;-1.40;1.00
11536;DHT22;5824;49.336;8.652;2024-01-10T05:15:44;-1.10;1.00
11536;DHT22;5824;49.336;8.652;2024-01-10T05:18:10;-1.40;1.00
11536;DHT22;5824;49.336;8.652;2024-01-10T05:20:35;-1.10;1.00
11536;DHT22;5824;49.336;8.652;2024-01-10T05:23:01;-1.00;1.00
11536;DHT22;5824;49.336;8.652;2024-01-10T05:25:26;-1.50;1.00
11536;DHT22;5824;49.336;8.652;2024-01-10T05:27:52;-1.60;1.00
11536;DHT22;5824;49.336;8.652;2024-01-10T05:30:18;-1.00;1.00
11536;DHT22;5824;49.336;8.652;2024-01-10T05:32:44;-1.20;1.00
11536;DHT22;5824;49.336;8.652;2024-01-10T05:35:10;-1.80;1.00
11536;DHT22;5824;49.336;8.652;2024-01-10T05:37:36;-1.00;1.00
11536;DHT22;5824;49.336;8.652;2024-01-10T05:40:02;-1.30;1.00
11536;DHT22;5824;49.336;8.652;2024-01-10T05:42:27;-1.70;1.00
11536;DHT22;5824;49.336;8.652;2024-01-10T05:44:53;-1.30;1.00
11536;DHT22;5824;49.336;8.652;2024-01-10T05:47:18;-1.50;1.00
11536;DHT22;5824;49.336;8.652;2024-01-10T05:49:44;-1.80;1.00
11536;DHT22;5824;49.336;8.652;2024-01-10T05:52:09;-0.90;1.00
11536;DHT22;5824;49.336;8.652;2024-01-10T05:54:35;-1.70;1.00
11536;DHT22;5824;49.336;8.652;2024-01-10T05:57:00;-1.80;1.00
11536;DHT22;5824;49.336;8.652;2024-01-10T05:59:26;-1.30;1.00
11536;DHT22;5824;49.336;8.652;2024-01-10T06:01:52;-1.80;1.00
11536;DHT22;5824;49.336;8.652;2024-01-10T06:04:17;-1.20;1.00
11536;DHT22;5824;49.336;8.652;2024-01-10T06:06:43;-1.10;1.00
11536;DHT22;5824;49.336;8.652;2024-01-10T06:09:10;-1.10;1.00
11536;DHT22;5824;49.336;8.652;2024-01-10T06:11:43;-1.60;1.00
11536;DHT22;5824;49.336;8.652;2024-01-10T06:14:08;-1.30;1.00
11536;DHT22;5824;49.336;8.652;2024-01-10T06:16:34;-1.30;1.00
11536;DHT22;5824;49.336;8.652;2024-01-10T06:19:00;-1.30;1.00
11536;DHT22;5824;49.336;8.652;2024-01-10T06:21:26;-0.90;1.00
11536;DHT22;5824;49.336;8.652;2024-01-10T06:23:51;-1.30;1.00
11536;DHT22;5824;49.336;8.652;2024-01-10T06:26:17;-0.80;1.00
11536;DHT22;5824;49.336;8.652;2024-01-10T06:28:42;-1.00;1.00
11536;DHT22;5824;49.336;8.652;2024-01-10T06:31:08;-1.10;1.00
11536;DHT22;5824;49.336;8.652;2024-01-10T06:33:33;-1.10;1.00
11536;DHT22;5824;49.336;8.652;2024-01-10T06:35:59;-1.00;1.00
11536;DHT22;5824;49.336;8.652;2024-01-10T06:38:24;-0.80;1.00
11536;DHT22;5824;49.336;8.652;2024-01-10T06:40:50;-1.00;1.00
11536;DHT22;5824;49.336;8.652;2024-01-10T06:43:16;-1.00;1.00
11536;DHT22;5824;49.336;8.652;2024-01-10T06:45:41;-0.80;1.00
11536;DHT22;5824;49.336;8.652;2024-01-10T06:48:07;-0.90;1.00
11536;DHT22;5824;49.336;8.652;2024-01-10T06:50:33;-1.30;1.00
11536;DHT22;5824;49.336;8.652;2024-01-10T06:52:59;-1.10;1.00
11536;DHT22;5824;49.336;8.652;2024-01-10T06:55:24;-1.00;1.00
11536;DHT22;5824;49.336;8.652;2024-01-10T06:57:50;-1.20;1.00
11536;DHT22;5824;49.336;8.652;2024-01-10T07:00:19;-1.20;1.00
11536;DHT22;5824;49.336;8.652;2024-01-10T07:02:46;-1.00;1.00
11536;DHT22;5824;49.336;8.652;2024-01-10T07:05:11;-1.10;1.00
11536;DHT22;5824;49.336;8.652;2024-01-10T07:07:37;-0.70;1.00
11536;DHT22;5824;49.336;8.652;2024-01-10T07:10:03;-0.80;1.00
11536;DHT22;5824;49.336;8.652;2024-01-10T07:12:33;-1.00;1.00
11536;DHT22;5824;49.336;8.652;2024-01-10T07:14:59;-0.80;1.00
11536;DHT22;5824;49.336;8.652;2024-01-10T07:17:24;-0.90;1.00
11536;DHT22;5824;49.336;8.652;2024-01-10T07:19:50;-1.00;1.00
11536;DHT22;5824;49.336;8.652;2024-01-10T07:22:16;-0.90;1.00
11536;DHT22;5824;49.336;8.652;2024-01-10T07:24:43;-1.50;1.00
11536;DHT22;5824;49.336;8.652;2024-01-10T07:27:09;-1.30;1.00
11536;DHT22;5824;49.336;8.652;2024-01-10T07:29:35;-1.00;1.00
11536;DHT22;5824;49.336;8.652;2024-01-10T07:32:00;-0.90;1.00
11536;DHT22;5824;49.336;8.652;2024-01-10T07:34:26;-0.50;1.00
11536;DHT22;5824;49.336;8.652;2024-01-10T07:36:51;-0.80;1.00
11536;DHT22;5824;49.336;8.652;2024-01-10T07:39:19;-0.90;1.00
11536;DHT22;5824;49.336;8.652;2024-01-10T07:41:45;-0.90;1.00
11536;DHT22;5824;49.336;8.652;2024-01-10T07:44:10;-0.80;1.00
11536;DHT22;5824;49.336;8.652;2024-01-10T07:46:36;-1.00;1.00
11536;DHT22;5824;49.336;8.652;2024-01-10T07:49:05;-0.70;1.00
11536;DHT22;5824;49.336;8.652;2024-01-10T07:51:31;-0.80;1.00
11536;DHT22;5824;49.336;8.652;2024-01-10T07:53:58;-0.80;1.00
11536;DHT22;5824;49.336;8.652;2024-01-10T07:56:24;-0.80;1.00
11536;DHT22;5824;49.336;8.652;2024-01-10T07:58:50;-0.70;1.00
11536;DHT22;5824;49.336;8.652;2024-01-10T08:01:16;-0.30;1.00
11536;DHT22;5824;49.336;8.652;2024-01-10T08:03:42;-0.70;1.00
11536;DHT22;5824;49.336;8.652;2024-01-10T08:06:07;-0.30;1.00
11536;DHT22;5824;49.336;8.652;2024-01-10T08:08:33;-0.60;1.00
11536;DHT22;5824;49.336;8.652;2024-01-10T08:10:59;-0.50;1.00
11536;DHT22;5824;49.336;8.652;2024-01-10T08:13:24;-0.50;1.00
11536;DHT22;5824;49.336;8.652;2024-01-10T08:15:50;0.00;1.00
11536;DHT22;5824;49.336;8.652;2024-01-10T08:18:16;-0.40;1.00
11536;DHT22;5824;49.336;8.652;2024-01-10T08:20:42;-0.80;1.00
11536;DHT22;5824;49.336;8.652;2024-01-10T08:23:08;-0.20;1.00
11536;DHT22;5824;49.336;8.652;2024-01-10T08:25:33;-0.40;1.00
11536;DHT22;5824;49.336;8.652;2024-01-10T08:27:59;-0.80;1.00
11536;DHT22;5824;49.336;8.652;2024-01-10T08:30:24;-0.40;1.00
11536;DHT22;5824;49.336;8.652;2024-01-10T08:32:50;-0.20;1.00
11536;DHT22;5824;49.336;8.652;2024-01-10T08:35:15;-0.30;1.00
11536;DHT22;5824;49.336;8.652;2024-01-10T08:37:41;0.10;1.00
11536;DHT22;5824;49.336;8.652;2024-01-10T08:40:09;-0.30;1.00
11536;DHT22;5824;49.336;8.652;2024-01-10T08:42:37;-0.30;1.00
11536;DHT22;5824;49.336;8.652;2024-01-10T08:45:04;0.20;1.00
11536;DHT22;5824;49.336;8.652;2024-01-10T08:47:29;-0.10;1.00
11536;DHT22;5824;49.336;8.652;2024-01-10T08:49:58;0.00;1.00
11536;DHT22;5824;49.336;8.652;2024-01-10T08:52:24;0.50;1.00
11536;DHT22;5824;49.336;8.652;2024-01-10T08:54:49;0.10;1.00
11536;DHT22;5824;49.336;8.652;2024-01-10T08:57:15;0.50;1.00
11536;DHT22;5824;49.336;8.652;2024-01-10T08:59:43;0.30;1.00
11536;DHT22;5824;49.336;8.652;2024-01-10T09:02:09;0.80;1.00
11536;DHT22;5824;49.336;8.652;2024-01-10T09:04:34;0.90;1.00
11536;DHT22;5824;49.336;8.652;2024-01-10T09:07:00;0.60;1.00
11536;DHT22;5824;49.336;8.652;2024-01-10T09:09:25;0.80;1.00
11536;DHT22;5824;49.336;8.652;2024-01-10T09:11:51;0.80;1.00
11536;DHT22;5824;49.336;8.652;2024-01-10T09:14:16;0.90;1.00
11536;DHT22;5824;49.336;8.652;2024-01-10T09:16:42;1.30;1.00
11536;DHT22;5824;49.336;8.652;2024-01-10T09:19:07;0.90;1.00
11536;DHT22;5824;49.336;8.652;2024-01-10T09:21:35;0.90;1.00
11536;DHT22;5824;49.336;8.652;2024-01-10T09:24:00;1.10;1.00
11536;DHT22;5824;49.336;8.652;2024-01-10T09:26:26;1.30;1.00
11536;DHT22;5824;49.336;8.652;2024-01-10T09:28:51;1.60;1.00
11536;DHT22;5824;49.336;8.652;2024-01-10T09:31:17;1.30;1.00
11536;DHT22;5824;49.336;8.652;2024-01-10T09:33:42;1.60;1.00
11536;DHT22;5824;49.336;8.652;2024-01-10T09:36:08;1.90;1.00
11536;DHT22;5824;49.336;8.652;2024-01-10T09:38:37;2.80;1.00
11536;DHT22;5824;49.336;8.652;2024-01-10T09:41:03;4.00;1.00
11536;DHT22;5824;49.336;8.652;2024-01-10T09:43:33;4.90;1.00
11536;DHT22;5824;49.336;8.652;2024-01-10T09:46:01;5.10;1.00
11536;DHT22;5824;49.336;8.652;2024-01-10T09:48:30;6.20;1.00
11536;DHT22;5824;49.336;8.652;2024-01-10T09:50:56;6.60;1.00
11536;DHT22;5824;49.336;8.652;2024-01-10T09:53:23;7.80;1.00
11536;DHT22;5824;49.336;8.652;2024-01-10T09:55:49;8.70;1.00
11536;DHT22;5824;49.336;8.652;2024-01-10T09:58:15;10.50;1.00
11536;DHT22;5824;49.336;8.652;2024-01-10T10:00:40;10.80;1.00
11536;DHT22;5824;49.336;8.652;2024-01-10T10:03:09;11.70;1.00
11536;DHT22;5824;49.336;8.652;2024-01-10T10:05:38;11.50;1.00
11536;DHT22;5824;49.336;8.652;2024-01-10T10:08:07;11.60;1.00
11536;DHT22;5824;49.336;8.652;2024-01-10T10:10:32;11.60;1.00
11536;DHT22;5824;49.336;8.652;2024-01-10T10:12:58;11.70;1.00
11536;DHT22;5824;49.336;8.652;2024-01-10T10:15:25;12.20;1.00
11536;DHT22;5824;49.336;8.652;2024-01-10T10:17:54;13.00;1.00
11536;DHT22;5824;49.336;8.652;2024-01-10T10:20:27;13.10;1.00
11536;DHT22;5824;49.336;8.652;2024-01-10T10:22:59;14.20;1.00
11536;DHT22;5824;49.336;8.652;2024-01-10T10:25:30;14.10;1.00
11536;DHT22;5824;49.336;8.652;2024-01-10T10:27:56;13.80;1.00
11536;DHT22;5824;49.336;8.652;2024-01-10T10:30:22;13.70;1.00
11536;DHT22;5824;49.336;8.652;2024-01-10T10:32:48;13.30;1.00
11536;DHT22;5824;49.336;8.652;2024-01-10T10:35:13;12.80;1.00
11536;DHT22;5824;49.336;8.652;2024-01-10T10:37:39;12.90;1.00
11536;DHT22;5824;49.336;8.652;2024-01-10T10:40:05;13.20;1.00
11536;DHT22;5824;49.336;8.652;2024-01-10T10:42:34;13.20;1.00
11536;DHT22;5824;49.336;8.652;2024-01-10T10:45:03;13.20;1.00
11536;DHT22;5824;49.336;8.652;2024-01-10T10:47:36;13.50;1.00
11536;DHT22;5824;49.336;8.652;2024-01-10T10:50:03;13.70;1.00
11536;DHT22;5824;49.336;8.652;2024-01-10T10:52:29;13.60;1.00
11536;DHT22;5824;49.336;8.652;2024-01-10T10:54:56;13.50;1.00
11536;DHT22;5824;49.336;8.652;2024-01-10T10:57:25;13.60;1.00
11536;DHT22;5824;49.336;8.652;2024-01-10T10:59:52;14.20;1.00
11536;DHT22;5824;49.336;8.652;2024-01-10T11:02:21;14.60;1.00
11536;DHT22;5824;49.336;8.652;2024-01-10T11:04:48;15.40;1.00
11536;DHT22;5824;49.336;8.652;2024-01-10T11:07:14;15.60;1.00
11536;DHT22;5824;49.336;8.652;2024-01-10T11:09:40;15.50;1.00
11536;DHT22;5824;49.336;8.652;2024-01-10T11:12:34;15.30;1.00
11536;DHT22;5824;49.336;8.652;2024-01-10T11:25:35;17.00;1.00
11536;DHT22;5824;49.336;8.652;2024-01-10T11:28:03;17.10;1.00
11536;DHT22;5824;49.336;8.652;2024-01-10T11:30:36;16.90;1.00
11536;DHT22;5824;49.336;8.652;2024-01-10T11:33:24;15.20;1.00
11536;DHT22;5824;49.336;8.652;2024-01-10T11:41:31;10.80;1.00
11536;DHT22;5824;49.336;8.652;2024-01-10T11:46:41;13.20;1.00
11536;DHT22;5824;49.336;8.652;2024-01-10T11:49:10;14.30;1.00
11536;DHT22;5824;49.336;8.652;2024-01-10T11:51:42;14.50;1.00
11536;DHT22;5824;49.336;8.652;2024-01-10T11:54:08;14.60;1.00
11536;DHT22;5824;49.336;8.652;2024-01-10T11:56:43;14.80;1.00
11536;DHT22;5824;49.336;8.652;2024-01-10T11:59:16;15.10;1.00
11536;DHT22;5824;49.336;8.652;2024-01-10T12:01:43;15.50;1.00
11536;DHT22;5824;49.336;8.652;2024-01-10T12:04:09;15.90;1.00
11536;DHT22;5824;49.336;8.652;2024-01-10T12:06:35;15.10;1.00
11536;DHT22;5824;49.336;8.652;2024-01-10T12:09:02;15.30;1.00
11536;DHT22;5824;49.336;8.652;2024-01-10T12:11:36;15.00;1.00
11536;DHT22;5824;49.336;8.652;2024-01-10T12:14:04;15.00;1.00
11536;DHT22;5824;49.336;8.652;2024-01-10T12:16:29;14.90;1.00
11536;DHT22;5824;49.336;8.652;2024-01-10T12:18:55;14.50;1.00
11536;DHT22;5824;49.336;8.652;2024-01-10T12:21:20;14.60;1.00
11536;DHT22;5824;49.336;8.652;2024-01-10T12:23:46;14.40;1.00
11536;DHT22;5824;49.336;8.652;2024-01-10T12:26:13;14.40;1.00
11536;DHT22;5824;49.336;8.652;2024-01-10T12:28:39;14.20;1.00
11536;DHT22;5824;49.336;8.652;2024-01-10T12:31:06;13.80;1.00
11536;DHT22;5824;49.336;8.652;2024-01-10T12:33:34;13.40;1.00
11536;DHT22;5824;49.336;8.652;2024-01-10T12:36:09;13.40;1.00
11536;DHT22;5824;49.336;8.652;2024-01-10T12:38:36;14.00;1.00
11536;DHT22;5824;49.336;8.652;2024-01-10T12:41:01;14.40;1.00
11536;DHT22;5824;49.336;8.652;2024-01-10T12:43:28;14.70;1.00
11536;DHT22;5824;49.336;8.652;2024-01-10T12:46:11;13.00;1.00
11536;DHT22;5824;49.336;8.652;2024-01-10T12:48:38;12.80;1.00
11536;DHT22;5824;49.336;8.652;2024-01-10T12:51:09;13.00;1.00
11536;DHT22;5824;49.336;8.652;2024-01-10T12:53:41;13.50;1.00
11536;DHT22;5824;49.336;8.652;2024-01-10T12:56:08;13.80;1.00
11536;DHT22;5824;49.336;8.652;2024-01-10T12:58:35;12.00;1.00
11536;DHT22;5824;49.336;8.652;2024-01-10T13:01:02;11.50;1.00
11536;DHT22;5824;49.336;8.652;2024-01-10T13:03:28;10.10;1.00
11536;DHT22;5824;49.336;8.652;2024-01-10T13:05:54;8.50;1.00
11536;DHT22;5824;49.336;8.652;2024-01-10T13:08:20;6.90;1.00
11536;DHT22;5824;49.336;8.652;2024-01-10T13:10:46;7.10;1.00
11536;DHT22;5824;49.336;8.652;2024-01-10T13:13:12;6.30;1.00
11536;DHT22;5824;49.336;8.652;2024-01-10T13:15:38;5.90;1.00
11536;DHT22;5824;49.336;8.652;2024-01-10T13:18:04;5.20;1.00
11536;DHT22;5824;49.336;8.652;2024-01-10T13:20:30;5.20;1.00
11536;DHT22;5824;49.336;8.652;2024-01-10T13:22:55;5.00;1.00
11536;DHT22;5824;49.336;8.652;2024-01-10T13:25:21;5.20;1.00
11536;DHT22;5824;49.336;8.652;2024-01-10T13:27:50;4.50;1.00
11536;DHT22;5824;49.336;8.652;2024-01-10T13:30:16;5.00;1.00
11536;DHT22;5824;49.336;8.652;2024-01-10T13:32:43;4.80;1.00
11536;DHT22;5824;49.336;8.652;2024-01-10T13:35:08;4.50;1.00
11536;DHT22;5824;49.336;8.652;2024-01-10T13:37:34;4.00;1.00
11536;DHT22;5824;49.336;8.652;2024-01-10T13:39:59;3.80;1.00
11536;DHT22;5824;49.336;8.652;2024-01-10T13:42:25;3.70;1.00
11536;DHT22;5824;49.336;8.652;2024-01-10T13:44:51;4.10;1.00
11536;DHT22;5824;49.336;8.652;2024-01-10T13:47:19;3.80;1.00
11536;DHT22;5824;49.336;8.652;2024-01-10T13:49:47;3.60;1.00
11536;DHT22;5824;49.336;8.652;2024-01-10T13:52:12;3.70;1.00
11536;DHT22;5824;49.336;8.652;2024-01-10T13:54:38;3.80;1.00
11536;DHT22;5824;49.336;8.652;2024-01-10T13:57:04;4.10;1.00
11536;DHT22;5824;49.336;8.652;2024-01-10T13:59:29;3.60;1.00
11536;DHT22;5824;49.336;8.652;2024-01-10T14:01:55;3.90;1.00
11536;DHT22;5824;49.336;8.652;2024-01-10T14:04:21;3.60;1.00
11536;DHT22;5824;49.336;8.652;2024-01-10T14:06:47;3.50;1.00
11536;DHT22;5824;49.336;8.652;2024-01-10T14:09:13;3.40;1.00
11536;DHT22;5824;49.336;8.652;2024-01-10T14:11:39;3.40;1.00
11536;DHT22;5824;49.336;8.652;2024-01-10T14:14:04;3.80;1.00
11536;DHT22;5824;49.336;8.652;2024-01-10T14:16:30;3.60;1.00
11536;DHT22;5824;49.336;8.652;2024-01-10T14:18:56;3.70;1.00
11536;DHT22;5824;49.336;8.652;2024-01-10T14:21:22;4.20;1.00
11536;DHT22;5824;49.336;8.652;2024-01-10T14:23:48;3.70;1.00
11536;DHT22;5824;49.336;8.652;2024-01-10T14:26:14;3.60;1.00
11536;DHT22;5824;49.336;8.652;2024-01-10T14:28:40;3.50;1.00
11536;DHT22;5824;49.336;8.652;2024-01-10T14:31:05;3.80;1.00
11536;DHT22;5824;49.336;8.652;2024-01-10T14:33:32;3.10;1.00
11536;DHT22;5824;49.336;8.652;2024-01-10T14:35:58;3.40;1.00
11536;DHT22;5824;49.336;8.652;2024-01-10T14:38:24;2.90;1.00
11536;DHT22;5824;49.336;8.652;2024-01-10T14:40:49;2.80;1.00
11536;DHT22;5824;49.336;8.652;2024-01-10T14:43:17;3.30;1.00
11536;DHT22;5824;49.336;8.652;2024-01-10T14:45:43;2.80;1.00
11536;DHT22;5824;49.336;8.652;2024-01-10T14:48:09;2.70;1.00
11536;DHT22;5824;49.336;8.652;2024-01-10T14:50:34;2.70;1.00
11536;DHT22;5824;49.336;8.652;2024-01-10T14:52:59;2.80;1.00
11536;DHT22;5824;49.336;8.652;2024-01-10T14:55:25;2.50;1.00
11536;DHT22;5824;49.336;8.652;2024-01-10T14:57:51;2.50;1.00
11536;DHT22;5824;49.336;8.652;2024-01-10T15:00:17;2.50;1.00
11536;DHT22;5824;49.336;8.652;2024-01-10T15:02:42;2.50;1.00
11536;DHT22;5824;49.336;8.652;2024-01-10T15:05:11;2.40;1.00
11536;DHT22;5824;49.336;8.652;2024-01-10T15:07:37;2.30;1.00
11536;DHT22;5824;49.336;8.652;2024-01-10T15:10:02;2.20;1.00
11536;DHT22;5824;49.336;8.652;2024-01-10T15:12:31;2.10;1.00
11536;DHT22;5824;49.336;8.652;2024-01-10T15:14:56;2.00;1.00
11536;DHT22;5824;49.336;8.652;2024-01-10T15:17:26;2.10;1.00
11536;DHT22;5824;49.336;8.652;2024-01-10T15:19:51;2.00;1.00
11536;DHT22;5824;49.336;8.652;2024-01-10T15:22:17;2.00;1.00
11536;DHT22;5824;49.336;8.652;2024-01-10T15:24:43;1.90;1.00
11536;DHT22;5824;49.336;8.652;2024-01-10T15:27:08;1.90;1.00
11536;DHT22;5824;49.336;8.652;2024-01-10T15:29:36;1.80;1.00
11536;DHT22;5824;49.336;8.652;2024-01-10T15:32:03;1.90;1.00
11536;DHT22;5824;49.336;8.652;2024-01-10T15:34:29;1.80;1.00
11536;DHT22;5824;49.336;8.652;2024-01-10T15:36:55;1.70;1.00
11536;DHT22;5824;49.336;8.652;2024-01-10T15:39:20;1.70;1.00
11536;DHT22;5824;49.336;8.652;2024-01-10T15:41:47;1.70;1.00
11536;DHT22;5824;49.336;8.652;2024-01-10T15:44:13;1.60;1.00
11536;DHT22;5824;49.336;8.652;2024-01-10T15:46:38;1.50;1.00
11536;DHT22;5824;49.336;8.652;2024-01-10T15:49:04;1.50;1.00
11536;DHT22;5824;49.336;8.652;2024-01-10T15:51:29;1.40;1.00
11536;DHT22;5824;49.336;8.652;2024-01-10T15:53:55;1.90;1.00
11536;DHT22;5824;49.336;8.652;2024-01-10T15:56:26;1.80;1.00
11536;DHT22;5824;49.336;8.652;2024-01-10T15:58:51;1.50;1.00
11536;DHT22;5824;49.336;8.652;2024-01-10T16:01:18;1.90;1.00
11536;DHT22;5824;49.336;8.652;2024-01-10T16:03:44;1.40;1.00
11536;DHT22;5824;49.336;8.652;2024-01-10T16:06:09;1.40;1.00
11536;DHT22;5824;49.336;8.652;2024-01-10T16:08:35;1.40;1.00
11536;DHT22;5824;49.336;8.652;2024-01-10T16:11:01;1.70;1.00
11536;DHT22;5824;49.336;8.652;2024-01-10T16:13:27;1.30;1.00
11536;DHT22;5824;49.336;8.652;2024-01-10T16:15:55;1.50;1.00
11536;DHT22;5824;49.336;8.652;2024-01-10T16:18:24;1.10;1.00
11536;DHT22;5824;49.336;8.652;2024-01-10T16:20:50;1.10;1.00